createdAt,value
2022-11-05T00:00:45.614Z,96724.00
2022-11-05T00:03:38.595Z,96728.00
2022-11-05T00:06:27.933Z,96730.00
2022-11-05T00:09:13.666Z,96726.00
2022-11-05T00:11:58.806Z,96722.00
2022-11-05T00:14:44.090Z,96733.00
2022-11-05T00:17:10.876Z,96734.00
2022-11-05T00:19:37.619Z,96744.00
2022-11-05T00:22:22.844Z,96747.00
2022-11-05T00:25:08.169Z,96740.00
2022-11-05T00:27:35.449Z,96746.00
2022-11-05T00:30:02.253Z,96746.00
2022-11-05T00:32:29.042Z,96741.00
2022-11-05T00:34:55.790Z,96752.00
2022-11-05T00:37:22.538Z,96751.00
2022-11-05T00:39:49.340Z,96749.00
2022-11-05T00:42:35.051Z,96754.00
2022-11-05T00:45:01.977Z,96756.00
2022-11-05T00:47:48.922Z,96763.00
2022-11-05T00:50:16.504Z,96764.00
2022-11-05T00:53:01.165Z,96762.00
2022-11-05T00:55:29.384Z,96765.00
2022-11-05T00:57:57.603Z,96772.00
2022-11-05T01:00:28.183Z,96776.00
2022-11-05T01:02:59.185Z,96779.00
2022-11-05T01:05:26.822Z,96766.00
2022-11-05T01:07:53.640Z,96776.00
2022-11-05T01:10:21.561Z,96778.00
2022-11-05T01:12:49.026Z,96783.00
2022-11-05T01:15:17.101Z,96785.00
2022-11-05T01:17:43.837Z,96777.00
2022-11-05T01:20:11.372Z,96783.00
2022-11-05T01:22:38.282Z,96784.00
2022-11-05T01:25:07.362Z,96779.00
2022-11-05T01:27:36.038Z,96782.00
2022-11-05T01:30:04.849Z,96782.00
2022-11-05T01:32:31.657Z,96782.00
2022-11-05T01:34:58.423Z,96785.00
2022-11-05T01:37:25.288Z,96785.00
2022-11-05T01:39:52.025Z,96780.00
2022-11-05T01:42:24.402Z,96783.00
2022-11-05T01:44:57.127Z,96781.00
2022-11-05T01:47:41.788Z,96795.00
2022-11-05T01:50:39.319Z,96798.00
2022-11-05T01:53:45.951Z,96800.00
2022-11-05T01:56:23.820Z,96794.00
2022-11-05T01:59:14.672Z,96789.00
2022-11-05T02:01:41.596Z,96802.00
2022-11-05T02:04:26.405Z,96799.00
2022-11-05T02:06:53.200Z,96795.00
2022-11-05T02:09:26.705Z,96798.00
2022-11-05T02:11:53.573Z,96797.00
2022-11-05T02:14:20.572Z,96805.00
2022-11-05T02:17:09.466Z,96811.00
2022-11-05T02:20:22.612Z,96809.00
2022-11-05T02:23:32.715Z,96813.00
2022-11-05T02:26:25.016Z,96808.00
2022-11-05T02:29:18.934Z,96817.00
2022-11-05T02:32:10.207Z,96818.00
2022-11-05T02:35:04.662Z,96808.00
2022-11-05T02:37:51.253Z,96810.00
2022-11-05T02:40:29.132Z,96803.00
2022-11-05T02:43:16.413Z,96813.00
2022-11-05T02:46:04.986Z,96808.00
2022-11-05T02:48:59.352Z,96814.00
2022-11-05T02:51:39.675Z,96819.00
2022-11-05T02:54:27.242Z,96815.00
2022-11-05T02:56:55.546Z,96817.00
2022-11-05T02:59:22.359Z,96817.00
2022-11-05T03:01:50.993Z,96822.00
2022-11-05T03:04:21.881Z,96827.00
2022-11-05T03:07:30.430Z,96830.00
2022-11-05T03:10:30.638Z,96829.00
2022-11-05T03:13:30.305Z,96829.00
2022-11-05T03:20:18.793Z,96841.00
2022-11-05T03:23:27.994Z,96855.00
2022-11-05T03:27:04.791Z,96853.00
2022-11-05T03:30:05.109Z,96857.00
2022-11-05T03:33:15.850Z,96856.00
2022-11-05T03:35:54.529Z,96866.00
2022-11-05T03:38:33.262Z,96863.00
2022-11-05T03:41:20.001Z,96869.00
2022-11-05T03:44:00.309Z,96861.00
2022-11-05T03:46:52.229Z,96866.00
2022-11-05T03:49:36.523Z,96867.00
2022-11-05T03:52:13.921Z,96874.00
2022-11-05T03:54:44.971Z,96867.00
2022-11-05T03:57:29.159Z,96868.00
2022-11-05T04:00:03.586Z,96883.00
2022-11-05T04:02:38.519Z,96874.00
2022-11-05T04:05:05.873Z,96891.00
2022-11-05T04:07:51.161Z,96900.00
2022-11-05T04:10:36.354Z,96903.00
2022-11-05T04:13:21.619Z,96899.00
2022-11-05T04:16:06.995Z,96897.00
2022-11-05T04:18:34.111Z,96910.00
2022-11-05T04:21:19.227Z,96906.00
2022-11-05T04:24:04.428Z,96909.00
2022-11-05T04:26:31.144Z,96904.00
2022-11-05T04:29:16.345Z,96910.00
2022-11-05T04:31:43.085Z,96913.00
2022-11-05T04:34:09.834Z,96916.00
2022-11-05T04:36:36.582Z,96926.00
2022-11-05T04:39:03.368Z,96923.00
2022-11-05T04:41:30.094Z,96913.00
2022-11-05T04:43:56.821Z,96917.00
2022-11-05T04:46:23.541Z,96927.00
2022-11-05T04:48:50.319Z,96926.00
2022-11-05T04:51:17.126Z,96921.00
2022-11-05T04:53:43.873Z,96929.00
2022-11-05T04:56:22.484Z,96929.00
2022-11-05T04:58:49.734Z,96936.00
2022-11-05T05:01:22.681Z,96933.00
2022-11-05T05:03:51.886Z,96919.00
2022-11-05T05:06:19.597Z,96926.00
2022-11-05T05:08:51.568Z,96932.00
2022-11-05T05:11:21.572Z,96937.00
2022-11-05T05:13:49.304Z,96946.00
2022-11-05T05:16:25.374Z,96942.00
2022-11-05T05:18:52.921Z,96937.00
2022-11-05T05:21:39.640Z,96960.00
2022-11-05T05:24:11.804Z,96953.00
2022-11-05T05:26:42.663Z,96963.00
2022-11-05T05:29:10.514Z,96962.00
2022-11-05T05:31:37.882Z,96970.00
2022-11-05T05:34:05.718Z,96981.00
2022-11-05T05:36:33.226Z,96978.00
2022-11-05T05:38:59.993Z,96991.00
2022-11-05T05:41:26.787Z,96984.00
2022-11-05T05:43:53.566Z,96984.00
2022-11-05T05:46:20.312Z,96997.00
2022-11-05T05:48:51.775Z,97000.00
2022-11-05T05:51:19.743Z,96998.00
2022-11-05T05:53:46.557Z,97001.00
2022-11-05T05:56:15.054Z,97002.00
2022-11-05T05:58:42.441Z,97002.00
2022-11-05T06:01:18.640Z,97002.00
2022-11-05T06:03:47.328Z,97009.00
2022-11-05T06:06:16.294Z,97020.00
2022-11-05T06:08:43.092Z,97019.00
2022-11-05T06:11:09.910Z,97020.00
2022-11-05T06:13:37.369Z,97024.00
2022-11-05T06:16:09.176Z,97013.00
2022-11-05T06:18:37.129Z,97024.00
2022-11-05T06:21:09.841Z,97025.00
2022-11-05T06:23:38.422Z,97023.00
2022-11-05T06:26:09.303Z,97033.00
2022-11-05T06:28:36.566Z,97036.00
2022-11-05T06:31:04.064Z,97040.00
2022-11-05T06:33:30.911Z,97038.00
2022-11-05T06:36:05.153Z,97050.00
2022-11-05T06:38:34.853Z,97045.00
2022-11-05T06:41:07.237Z,97049.00
2022-11-05T06:43:37.227Z,97063.00
2022-11-05T06:46:04.565Z,97062.00
2022-11-05T06:48:31.389Z,97063.00
2022-11-05T06:50:58.240Z,97070.00
2022-11-05T06:53:25.603Z,97078.00
2022-11-05T06:55:52.349Z,97082.00
2022-11-05T06:58:19.277Z,97078.00
2022-11-05T07:00:46.608Z,97077.00
2022-11-05T07:03:13.752Z,97088.00
2022-11-05T07:05:48.092Z,97080.00
2022-11-05T07:08:15.710Z,97090.00
2022-11-05T07:10:42.586Z,97097.00
2022-11-05T07:13:09.444Z,97103.00
2022-11-05T07:15:37.330Z,97108.00
2022-11-05T07:18:07.313Z,97111.00
2022-11-05T07:20:34.847Z,97113.00
2022-11-05T07:23:07.979Z,97118.00
2022-11-05T07:25:35.099Z,97118.00
2022-11-05T07:28:02.905Z,97114.00
2022-11-05T07:30:30.089Z,97118.00
2022-11-05T07:32:56.860Z,97124.00
2022-11-05T07:35:24.397Z,97127.00
2022-11-05T07:37:53.938Z,97130.00
2022-11-05T07:40:22.786Z,97135.00
2022-11-05T07:42:56.637Z,97144.00
2022-11-05T07:45:24.451Z,97141.00
2022-11-05T07:48:00.583Z,97149.00
2022-11-05T07:50:31.225Z,97155.00
2022-11-05T07:53:11.957Z,97154.00
2022-11-05T07:55:41.042Z,97162.00
2022-11-05T07:58:07.980Z,97169.00
2022-11-05T08:00:35.026Z,97163.00
2022-11-05T08:03:13.328Z,97166.00
2022-11-05T08:05:46.096Z,97157.00
2022-11-05T08:08:18.751Z,97172.00
2022-11-05T08:10:46.327Z,97173.00
2022-11-05T08:13:14.056Z,97172.00
2022-11-05T08:15:42.782Z,97176.00
2022-11-05T08:18:17.057Z,97175.00
2022-11-05T08:20:46.723Z,97172.00
2022-11-05T08:23:14.212Z,97179.00
2022-11-05T08:25:41.925Z,97180.00
2022-11-05T08:28:12.189Z,97184.00
2022-11-05T08:30:39.017Z,97185.00
2022-11-05T08:33:10.176Z,97185.00
2022-11-05T08:35:38.812Z,97191.00
2022-11-05T08:38:07.582Z,97193.00
2022-11-05T08:40:36.200Z,97197.00
2022-11-05T08:43:05.316Z,97204.00
2022-11-05T08:45:32.709Z,97207.00
2022-11-05T08:48:07.357Z,97208.00
2022-11-05T08:50:34.743Z,97212.00
2022-11-05T08:53:01.691Z,97212.00
2022-11-05T08:55:29.016Z,97211.00
2022-11-05T08:58:20.085Z,97204.00
2022-11-05T09:00:49.319Z,97209.00
2022-11-05T09:03:16.626Z,97208.00
2022-11-05T09:05:43.809Z,97215.00
2022-11-05T09:08:17.900Z,97213.00
2022-11-05T09:10:46.634Z,97219.00
2022-11-05T09:13:18.976Z,97219.00
2022-11-05T09:15:48.781Z,97221.00
2022-11-05T09:18:17.164Z,97212.00
2022-11-05T09:20:44.622Z,97225.00
2022-11-05T09:23:14.753Z,97227.00
2022-11-05T09:25:42.081Z,97221.00
2022-11-05T09:28:21.376Z,97228.00
2022-11-05T09:30:51.115Z,97233.00
2022-11-05T09:33:21.957Z,97231.00
2022-11-05T09:35:48.726Z,97232.00
2022-11-05T09:38:16.017Z,97230.00
2022-11-05T09:41:14.039Z,97232.00
2022-11-05T09:43:49.795Z,97227.00
2022-11-05T09:46:28.944Z,97233.00
2022-11-05T09:49:04.137Z,97229.00
2022-11-05T09:51:31.749Z,97232.00
2022-11-05T09:53:59.616Z,97239.00
2022-11-05T09:56:31.012Z,97242.00
2022-11-05T09:59:22.997Z,97242.00
2022-11-05T10:01:52.326Z,97237.00
2022-11-05T10:04:23.918Z,97242.00
2022-11-05T10:07:02.263Z,97237.00
2022-11-05T10:09:47.661Z,97244.00
2022-11-05T10:12:30.405Z,97259.00
2022-11-05T10:15:13.017Z,97242.00
2022-11-05T10:17:48.934Z,97255.00
2022-11-05T10:20:34.064Z,97259.00
2022-11-05T10:23:14.700Z,97266.00
2022-11-05T10:25:48.449Z,97265.00
2022-11-05T10:28:19.678Z,97274.00
2022-11-05T10:30:49.777Z,97278.00
2022-11-05T10:33:30.056Z,97282.00
2022-11-05T10:36:04.072Z,97277.00
2022-11-05T10:38:31.048Z,97285.00
2022-11-05T10:41:26.251Z,97291.00
2022-11-05T10:44:28.327Z,97285.00
2022-11-05T10:47:35.654Z,97282.00
2022-11-05T10:50:07.223Z,97288.00
2022-11-05T10:52:36.643Z,97294.00
2022-11-05T10:55:29.646Z,97287.00
2022-11-05T10:58:13.249Z,97295.00
2022-11-05T11:00:41.023Z,97291.00
2022-11-05T11:03:33.746Z,97301.00
2022-11-05T11:06:26.055Z,97288.00
2022-11-05T11:08:56.290Z,97282.00
2022-11-05T11:11:40.912Z,97277.00
2022-11-05T11:14:13.713Z,97278.00
2022-11-05T11:16:46.175Z,97281.00
2022-11-05T11:19:39.313Z,97277.00
2022-11-05T11:22:05.963Z,97279.00
2022-11-05T11:24:40.932Z,97287.00
2022-11-05T11:27:16.559Z,97283.00
2022-11-05T11:29:50.609Z,97276.00
2022-11-05T11:32:21.496Z,97276.00
2022-11-05T11:34:59.655Z,97266.00
2022-11-05T11:37:33.197Z,97271.00
2022-11-05T11:40:06.506Z,97275.00
2022-11-05T11:42:38.468Z,97273.00
2022-11-05T11:45:25.794Z,97284.00
2022-11-05T11:47:58.165Z,97285.00
2022-11-05T11:50:44.813Z,97279.00
2022-11-05T11:53:34.535Z,97282.00
2022-11-05T11:56:10.644Z,97287.00
2022-11-05T11:58:43.537Z,97290.00
2022-11-05T12:01:45.124Z,97293.00
2022-11-05T12:04:30.739Z,97293.00
2022-11-05T12:07:19.120Z,97294.00
2022-11-05T12:10:10.409Z,97294.00
2022-11-05T12:13:17.593Z,97296.00
2022-11-05T12:15:55.539Z,97297.00
2022-11-05T12:18:28.284Z,97291.00
2022-11-05T12:21:29.472Z,97294.00
2022-11-05T12:24:19.648Z,97294.00
2022-11-05T12:27:26.650Z,97283.00
2022-11-05T12:30:12.421Z,97283.00
2022-11-05T12:33:25.803Z,97278.00
2022-11-05T12:36:03.426Z,97272.00
2022-11-05T12:39:05.396Z,97279.00
2022-11-05T12:41:54.860Z,97286.00
2022-11-05T12:44:55.502Z,97285.00
2022-11-05T12:47:57.980Z,97282.00
2022-11-05T12:50:38.754Z,97284.00
2022-11-05T12:53:20.229Z,97281.00
2022-11-05T12:55:49.869Z,97274.00
2022-11-05T12:58:33.283Z,97280.00
2022-11-05T13:01:16.164Z,97272.00
2022-11-05T13:03:53.785Z,97264.00
2022-11-05T13:06:36.325Z,97259.00
2022-11-05T13:09:24.656Z,97258.00
2022-11-05T13:12:09.027Z,97249.00
2022-11-05T13:14:59.611Z,97253.00
2022-11-05T13:17:37.211Z,97255.00
2022-11-05T13:20:34.111Z,97257.00
2022-11-05T13:23:07.310Z,97254.00
2022-11-05T13:25:57.756Z,97252.00
2022-11-05T13:28:34.020Z,97261.00
2022-11-05T13:31:05.479Z,97259.00
2022-11-05T13:33:45.486Z,97264.00
2022-11-05T13:36:51.960Z,97248.00
2022-11-05T13:39:56.414Z,97248.00
2022-11-05T13:42:51.830Z,97258.00
2022-11-05T13:46:04.574Z,97255.00
2022-11-05T13:49:10.203Z,97259.00
2022-11-05T13:51:49.750Z,97253.00
2022-11-05T13:55:03.379Z,97263.00
2022-11-05T13:58:50.504Z,97264.00
2022-11-05T14:01:41.572Z,97274.00
2022-11-05T14:04:32.483Z,97273.00
2022-11-05T14:07:19.755Z,97269.00
2022-11-05T14:10:00.317Z,97269.00
2022-11-05T14:12:40.477Z,97265.00
2022-11-05T14:15:23.393Z,97269.00
2022-11-05T14:18:03.538Z,97272.00
2022-11-05T14:20:36.248Z,97269.00
2022-11-05T14:23:26.188Z,97261.00
2022-11-05T14:26:36.686Z,97263.00
2022-11-05T14:29:04.018Z,97269.00
2022-11-05T14:35:24.855Z,97271.00
2022-11-05T14:38:00.288Z,97270.00
2022-11-05T14:40:44.127Z,97262.00
2022-11-05T14:43:24.407Z,97259.00
2022-11-05T14:46:02.388Z,97269.00
2022-11-05T14:48:40.559Z,97260.00
2022-11-05T14:51:48.503Z,97258.00
2022-11-05T14:54:47.233Z,97263.00
2022-11-05T14:57:44.846Z,97268.00
2022-11-05T15:00:30.238Z,97264.00
2022-11-05T15:03:05.164Z,97271.00
2022-11-05T15:05:38.068Z,97264.00
2022-11-05T15:08:26.829Z,97268.00
2022-11-05T15:11:05.626Z,97281.00
2022-11-05T15:13:42.436Z,97294.00
2022-11-05T15:16:10.047Z,97285.00
2022-11-05T15:18:47.271Z,97281.00
2022-11-05T15:21:18.634Z,97278.00
2022-11-05T15:23:52.336Z,97285.00
2022-11-05T15:26:46.419Z,97279.00
2022-11-05T15:29:24.953Z,97278.00
2022-11-05T15:31:53.154Z,97276.00
2022-11-05T15:34:32.368Z,97271.00
2022-11-05T15:37:24.180Z,97279.00
2022-11-05T15:39:53.716Z,97280.00
2022-11-05T15:42:25.241Z,97280.00
2022-11-05T15:44:55.189Z,97275.00
2022-11-05T15:47:36.883Z,97281.00
2022-11-05T15:50:14.895Z,97287.00
2022-11-05T15:52:52.162Z,97277.00
2022-11-05T15:55:24.307Z,97280.00
2022-11-05T15:57:55.585Z,97280.00
2022-11-05T16:00:24.477Z,97282.00
2022-11-05T16:02:58.540Z,97285.00
2022-11-05T16:05:35.750Z,97292.00
2022-11-05T16:08:06.016Z,97301.00
2022-11-05T16:10:37.151Z,97297.00
2022-11-05T16:13:39.675Z,97301.00
2022-11-05T16:16:32.229Z,97304.00
2022-11-05T16:18:59.108Z,97299.00
2022-11-05T16:21:25.878Z,97303.00
2022-11-05T16:23:58.947Z,97314.00
2022-11-05T16:29:39.465Z,97318.00
2022-11-05T16:32:14.875Z,97315.00
2022-11-05T16:34:47.137Z,97321.00
2022-11-05T16:37:19.441Z,97316.00
2022-11-05T16:39:46.657Z,97317.00
2022-11-05T16:42:22.441Z,97331.00
2022-11-05T16:44:53.706Z,97327.00
2022-11-05T16:47:21.936Z,97325.00
2022-11-05T16:49:49.358Z,97323.00
2022-11-05T16:52:16.861Z,97318.00
2022-11-05T16:54:44.099Z,97317.00
2022-11-05T16:57:28.304Z,97319.00
2022-11-05T16:59:55.850Z,97322.00
2022-11-05T17:02:23.093Z,97322.00
2022-11-05T17:04:50.052Z,97327.00
2022-11-05T17:07:16.854Z,97335.00
2022-11-05T17:09:43.750Z,97337.00
2022-11-05T17:12:11.527Z,97343.00
2022-11-05T17:14:38.726Z,97349.00
2022-11-05T17:17:06.366Z,97345.00
2022-11-05T17:19:33.247Z,97345.00
2022-11-05T17:22:00.001Z,97350.00
2022-11-05T17:24:26.745Z,97341.00
2022-11-05T17:26:53.465Z,97346.00
2022-11-05T17:29:20.266Z,97347.00
2022-11-05T17:31:46.999Z,97353.00
2022-11-05T17:34:13.736Z,97353.00
2022-11-05T17:36:40.451Z,97350.00
2022-11-05T17:39:07.238Z,97344.00
2022-11-05T17:41:33.963Z,97336.00
2022-11-05T17:44:00.736Z,97347.00
2022-11-05T17:46:27.647Z,97360.00
2022-11-05T17:48:54.402Z,97363.00
2022-11-05T17:51:21.744Z,97365.00
2022-11-05T17:53:51.682Z,97360.00
2022-11-05T17:56:32.148Z,97358.00
2022-11-05T17:59:01.205Z,97357.00
2022-11-05T18:01:31.635Z,97357.00
2022-11-05T18:04:02.462Z,97364.00
2022-11-05T18:06:33.816Z,97366.00
2022-11-05T18:09:00.555Z,97364.00
2022-11-05T18:11:27.299Z,97365.00
2022-11-05T18:13:54.039Z,97366.00
2022-11-05T18:16:20.765Z,97372.00
2022-11-05T18:18:49.136Z,97368.00
2022-11-05T18:21:16.089Z,97362.00
2022-11-05T18:23:43.167Z,97369.00
2022-11-05T18:26:15.848Z,97373.00
2022-11-05T18:28:43.557Z,97374.00
2022-11-05T18:31:21.299Z,97364.00
2022-11-05T18:33:50.461Z,97363.00
2022-11-05T18:36:23.694Z,97355.00
2022-11-05T18:38:51.014Z,97366.00
2022-11-05T18:41:19.101Z,97366.00
2022-11-05T18:43:46.242Z,97361.00
2022-11-05T18:46:35.778Z,97364.00
2022-11-05T18:49:00.774Z,97363.00
2022-11-05T18:51:27.741Z,97372.00
2022-11-05T18:53:55.542Z,97354.00
2022-11-05T18:56:23.388Z,97354.00
2022-11-05T18:58:50.632Z,97354.00
2022-11-05T19:01:27.878Z,97358.00
2022-11-05T19:03:55.111Z,97361.00
2022-11-05T19:06:22.035Z,97360.00
2022-11-05T19:08:49.042Z,97363.00
2022-11-05T19:11:20.051Z,97360.00
2022-11-05T19:13:47.673Z,97362.00
2022-11-05T19:16:22.042Z,97364.00
2022-11-05T19:18:50.116Z,97366.00
2022-11-05T19:21:23.749Z,97369.00
2022-11-05T19:23:52.325Z,97375.00
2022-11-05T19:26:28.588Z,97375.00
2022-11-05T19:28:59.093Z,97378.00
2022-11-05T19:31:26.550Z,97378.00
2022-11-05T19:33:54.271Z,97374.00
2022-11-05T19:36:23.876Z,97363.00
2022-11-05T19:39:06.125Z,97370.00
2022-11-05T19:41:32.996Z,97362.00
2022-11-05T19:44:01.681Z,97361.00
2022-11-05T19:46:30.337Z,97367.00
2022-11-05T19:48:59.719Z,97366.00
2022-11-05T19:51:30.170Z,97369.00
2022-11-05T19:53:58.038Z,97369.00
2022-11-05T19:56:29.560Z,97374.00
2022-11-05T19:58:57.149Z,97369.00
2022-11-05T20:01:26.542Z,97377.00
2022-11-05T20:03:56.329Z,97371.00
2022-11-05T20:06:28.608Z,97379.00
2022-11-05T20:11:48.318Z,97372.00
2022-11-05T20:14:15.090Z,97369.00
2022-11-05T20:16:42.731Z,97365.00
2022-11-05T20:19:14.498Z,97365.00
2022-11-05T20:21:42.613Z,97371.00
2022-11-05T20:24:13.278Z,97373.00
2022-11-05T20:26:41.318Z,97376.00
2022-11-05T20:29:46.316Z,97370.00
2022-11-05T20:32:22.481Z,97365.00
2022-11-05T20:34:51.548Z,97368.00
2022-11-05T20:37:24.644Z,97366.00
2022-11-05T20:39:59.690Z,97354.00
2022-11-05T20:42:27.699Z,97367.00
2022-11-05T20:44:56.724Z,97370.00
2022-11-05T20:47:23.845Z,97369.00
2022-11-05T20:49:50.582Z,97382.00
2022-11-05T20:52:17.364Z,97382.00
2022-11-05T20:54:44.202Z,97376.00
2022-11-05T20:57:10.951Z,97374.00
2022-11-05T20:59:37.749Z,97369.00
2022-11-05T21:02:04.750Z,97372.00
2022-11-05T21:04:31.684Z,97372.00
2022-11-05T21:06:58.439Z,97380.00
2022-11-05T21:09:25.268Z,97381.00
2022-11-05T21:12:10.090Z,97377.00
2022-11-05T21:14:42.651Z,97385.00
2022-11-05T21:17:11.950Z,97384.00
2022-11-05T21:19:38.781Z,97391.00
2022-11-05T21:22:06.937Z,97383.00
2022-11-05T21:24:34.742Z,97377.00
2022-11-05T21:27:01.830Z,97384.00
2022-11-05T21:29:28.638Z,97381.00
2022-11-05T21:31:55.398Z,97386.00
2022-11-05T21:34:22.115Z,97385.00
2022-11-05T21:36:50.431Z,97387.00
2022-11-05T21:39:18.553Z,97395.00
2022-11-05T21:41:45.474Z,97396.00
2022-11-05T21:44:12.279Z,97394.00
2022-11-05T21:46:39.338Z,97390.00
2022-11-05T21:49:06.094Z,97386.00
2022-11-05T21:51:51.376Z,97400.00
2022-11-05T21:54:36.922Z,97388.00
2022-11-05T21:57:22.326Z,97382.00
2022-11-05T21:59:49.178Z,97376.00
2022-11-05T22:02:25.142Z,97375.00
2022-11-05T22:04:54.616Z,97377.00
2022-11-05T22:07:26.058Z,97369.00
2022-11-05T22:09:52.709Z,97369.00
2022-11-05T22:12:19.670Z,97363.00
2022-11-05T22:14:46.713Z,97368.00
2022-11-05T22:17:14.435Z,97363.00
2022-11-05T22:19:41.369Z,97363.00
2022-11-05T22:22:08.363Z,97359.00
2022-11-05T22:24:36.049Z,97346.00
2022-11-05T22:27:08.748Z,97354.00
2022-11-05T22:29:36.919Z,97350.00
2022-11-05T22:32:04.715Z,97363.00
2022-11-05T22:34:31.957Z,97366.00
2022-11-05T22:36:58.797Z,97358.00
2022-11-05T22:39:25.841Z,97363.00
2022-11-05T22:41:57.262Z,97365.00
2022-11-05T22:44:24.975Z,97362.00
2022-11-05T22:46:52.232Z,97351.00
2022-11-05T22:49:19.393Z,97359.00
2022-11-05T22:51:46.427Z,97348.00
2022-11-05T22:54:13.560Z,97341.00
2022-11-05T22:56:42.519Z,97330.00
2022-11-05T22:59:14.901Z,97336.00
2022-11-05T23:01:44.100Z,97341.00
2022-11-05T23:04:13.025Z,97340.00
2022-11-05T23:06:58.707Z,97343.00
2022-11-05T23:09:51.254Z,97344.00
2022-11-05T23:12:27.224Z,97344.00
2022-11-05T23:14:56.372Z,97326.00
2022-11-05T23:17:42.414Z,97337.00
2022-11-05T23:20:38.827Z,97330.00
2022-11-05T23:23:31.627Z,97313.00
2022-11-05T23:26:00.161Z,97306.00
2022-11-05T23:28:27.126Z,97319.00
2022-11-05T23:31:12.223Z,97324.00
2022-11-05T23:33:38.974Z,97312.00
2022-11-05T23:36:24.388Z,97312.00
2022-11-05T23:38:51.118Z,97323.00
2022-11-05T23:41:36.442Z,97318.00
2022-11-05T23:44:21.766Z,97329.00
2022-11-05T23:47:06.929Z,97304.00
2022-11-05T23:49:33.729Z,97308.00
2022-11-05T23:52:00.485Z,97298.00
2022-11-05T23:54:27.249Z,97309.00
2022-11-05T23:56:54.005Z,97306.00
2022-11-05T23:59:20.840Z,97295.00
